This is the latest recevied weather packets stored in our database for station/object TULLARI. If no packets are shown the sender has not sent any weather packets the latest 1 day(s).
| Time | Temp. | Humidity | Pressure | Rain* | Wind** | Luminosity | Snow |
|---|---|---|---|---|---|---|---|
| 1777978043 | 7.22° C | 74% | 1006 hPa | - | 9.39 m/s, 276° | - | - |
| 1777976843 | 7.22° C | 73% | 1005.7 hPa | - | 8.94 m/s, 276° | - | - |
| 1777975643 | 7.22° C | 78% | 1005.5 hPa | - | 9.39 m/s, 270° | - | - |
| 1777974443 | 7.22° C | 76% | 1005.2 hPa | - | 9.83 m/s, 275° | - | - |
| 1777973242 | 7.22° C | 76% | 1004.9 hPa | - | 9.39 m/s, 279° | - | - |
| 1777972043 | 7.22° C | 77% | 1004.6 hPa | - | 9.83 m/s, 277° | - | - |
| 1777970844 | 7.22° C | 77% | 1004.3 hPa | - | 10.28 m/s, 277° | - | - |
| 1777969643 | 7.22° C | 81% | 1004 hPa | - | 8.94 m/s, 275° | - | - |
| 1777968443 | 7.22° C | 79% | 1003.8 hPa | - | 9.39 m/s, 280° | - | - |
| 1777967242 | 7.78° C | 77% | 1003.2 hPa | - | 9.39 m/s, 282° | - | - |
| 1777966043 | 7.22° C | 81% | 1003 hPa | - | 9.39 m/s, 275° | - | - |
| 1777964842 | 6.67° C | 86% | 1002.7 hPa | - | 9.39 m/s, 270° | - | - |
| 1777963642 | 6.67° C | 89% | 1002.5 hPa | - | 9.83 m/s, 266° | - | - |
| 1777962442 | 6.67° C | 89% | 1002.1 hPa | - | 10.28 m/s, 255° | - | - |
| 1777961243 | 6.11° C | 88% | 1001.9 hPa | - | 10.28 m/s, 255° | - | - |
| 1777960042 | 6.11° C | 87% | 1001.8 hPa | - | 11.18 m/s, 250° | - | - |
| 1777958843 | 6.11° C | 87% | 1001.7 hPa | - | 10.73 m/s, 249° | - | - |
| 1777957642 | 6.11° C | 87% | 1001.6 hPa | - | 10.73 m/s, 244° | - | - |
| 1777956442 | 6.11° C | 87% | 1001.4 hPa | - | 10.73 m/s, 243° | - | - |
| 1777955241 | 6.11° C | 86% | 1001.3 hPa | - | 11.62 m/s, 239° | - | - |
| 1777954042 | 6.11° C | 85% | 1001.2 hPa | - | 12.07 m/s, 237° | - | - |
| 1777952843 | 6.11° C | 85% | 1001.1 hPa | - | 11.62 m/s, 233° | - | - |
| 1777951642 | 6.67° C | 82% | 1001 hPa | - | 11.62 m/s, 233° | - | - |
* Rain since midnight (hover to see other rain measurements)
** Current wind speed in m/s (hover to see current wind gust speed)